Time;durP1;ratioP1;P1;durP2;ratioP2;P2;SDS_P1;SDS_P2;PMS_P1;PMS_P2;Temp;Humidity;BMP_temperature;BMP_pressure;BME280_temperature;BME280_humidity;BME280_pressure;Samples;Min_cycle;Max_cycle;Signal;HPM_P1;HPM_P2
2022/11/07 00:07:12;;;;;;;18.80;9.93;;;6.80;99.90;;;;;;20907325;28;20090;-76
2022/11/07 00:17:12;;;;;;;19.00;11.17;;;6.90;99.90;;;;;;20911274;28;20029;-76
2022/11/07 00:27:13;;;;;;;15.07;9.13;;;6.70;99.90;;;;;;20890139;28;20139;-76
2022/11/07 00:37:14;;;;;;;18.33;9.87;;;6.60;99.90;;;;;;20906959;28;20283;-76
2022/11/07 00:47:15;;;;;;;17.17;9.60;;;6.80;99.90;;;;;;20913529;28;20086;-76
2022/11/07 00:57:15;;;;;;;18.30;10.57;;;6.90;99.90;;;;;;20921825;28;20863;-76
2022/11/07 01:07:16;;;;;;;20.47;10.70;;;6.90;99.90;;;;;;20921643;28;20521;-77
2022/11/07 01:17:17;;;;;;;16.93;10.20;;;7.00;99.90;;;;;;20920476;28;20032;-77
2022/11/07 01:27:18;;;;;;;19.80;11.60;;;7.00;99.90;;;;;;20899148;28;20052;-76
2022/11/07 01:37:18;;;;;;;30.80;16.97;;;6.90;99.90;;;;;;20918663;28;20491;-76
2022/11/07 01:47:20;;;;;;;;;;;7.00;99.90;;;;;;20918537;28;20037;-77
2022/11/07 01:57:35;;;;;;;26.83;13.43;;;7.00;99.90;;;;;;20917251;28;20341;-76
2022/11/07 02:07:38;;;;;;;27.83;13.48;;;7.00;99.90;;;;;;20901933;28;20043;-77
2022/11/07 02:17:39;;;;;;;27.67;14.25;;;6.90;99.90;;;;;;20898132;28;20032;-76
2022/11/07 02:27:40;;;;;;;;;;;6.40;99.90;;;;;;20915638;28;20032;-77
2022/11/07 02:37:41;;;;;;;24.02;13.65;;;6.40;99.90;;;;;;20915742;28;19912;-76
2022/11/07 02:47:41;;;;;;;19.47;10.73;;;6.40;99.90;;;;;;20882062;28;20044;-76
2022/11/07 02:57:42;;;;;;;;;;;5.70;99.90;;;;;;20912189;28;20028;-76
2022/11/07 03:07:44;;;;;;;28.57;14.03;;;5.70;99.90;;;;;;20876935;28;19996;-76
2022/11/07 03:17:45;;;;;;;30.25;15.02;;;6.00;99.90;;;;;;20911051;28;20688;-76
2022/11/07 03:27:47;;;;;;;33.97;16.13;;;6.10;99.90;;;;;;20910161;28;20035;-76
2022/11/07 03:37:48;;;;;;;29.38;14.95;;;6.20;99.90;;;;;;20910612;28;20291;-77
2022/11/07 03:47:49;;;;;;;30.52;16.42;;;6.10;99.90;;;;;;20891378;28;20033;-76
2022/11/07 03:57:50;;;;;;;34.97;15.77;;;6.10;99.90;;;;;;20908257;28;20032;-76
2022/11/07 04:07:51;;;;;;;27.63;15.32;;;6.10;99.90;;;;;;20908314;28;20278;-76
2022/11/07 04:17:51;;;;;;;;;;;5.90;99.90;;;;;;20873722;28;20041;-76
2022/11/07 04:27:52;;;;;;;29.97;14.97;;;5.90;99.90;;;;;;20906059;28;19996;-76
2022/11/07 04:37:53;;;;;;;30.83;16.30;;;6.00;99.90;;;;;;20923483;28;20033;-77
2022/11/07 04:47:54;;;;;;;;;;;6.20;99.90;;;;;;20908468;28;20032;-77
2022/11/07 04:57:55;;;;;;;27.00;13.80;;;6.30;99.90;;;;;;20922977;28;20278;-77
2022/11/07 05:07:55;;;;;;;25.07;13.70;;;6.20;99.90;;;;;;20922666;28;20456;-77
2022/11/07 05:17:56;;;;;;;23.60;13.13;;;6.10;99.90;;;;;;20921912;28;20368;-78
2022/11/07 05:27:57;;;;;;;23.27;13.37;;;6.10;99.90;;;;;;20923252;28;20601;-75
2022/11/07 05:37:58;;;;;;;22.77;12.63;;;6.10;99.90;;;;;;20918146;28;20318;-77
2022/11/07 05:48:00;;;;;;;27.63;14.88;;;6.00;99.90;;;;;;20920556;28;20029;-77
2022/11/07 05:58:07;;;;;;;25.48;14.27;;;5.80;99.90;;;;;;20898759;28;20443;-77
2022/11/07 06:08:11;;;;;;;25.85;13.98;;;5.80;99.90;;;;;;20919424;28;20407;-77
2022/11/07 06:18:18;;;;;;;26.67;14.00;;;5.90;99.90;;;;;;20893262;28;20503;-78
2022/11/07 06:28:22;;;;;;;26.92;14.32;;;5.70;99.90;;;;;;20927283;28;20043;-78
2022/11/07 06:38:23;;;;;;;34.90;13.95;;;5.70;99.90;;;;;;20910168;28;20033;-78
2022/11/07 06:48:24;;;;;;;31.65;13.68;;;5.80;99.90;;;;;;20930433;28;20037;-79
2022/11/07 06:58:25;;;;;;;55.30;15.10;;;5.80;99.90;;;;;;20931070;28;20079;-77
2022/11/07 07:08:26;;;;;;;146.85;19.17;;;5.80;99.90;;;;;;20951353;28;20363;-78
2022/11/07 07:18:27;;;;;;;124.63;15.52;;;5.80;99.90;;;;;;20932283;28;20108;-78
2022/11/07 07:28:28;;;;;;;175.07;14.93;;;5.70;99.90;;;;;;20962826;28;20032;-76
2022/11/07 07:38:29;;;;;;;;;;;5.50;99.90;;;;;;20942469;28;20033;-78
2022/11/07 07:48:30;;;;;;;125.60;17.57;;;6.00;99.90;;;;;;20963886;28;19951;-78
2022/11/07 07:58:31;;;;;;;59.28;15.27;;;6.00;99.90;;;;;;20961747;28;20298;-78
2022/11/07 08:08:32;;;;;;;36.92;12.65;;;6.70;99.90;;;;;;20954367;28;20083;-78
2022/11/07 08:18:35;;;;;;;67.03;13.20;;;6.90;99.90;;;;;;20880434;28;20033;-78
2022/11/07 08:28:36;;;;;;;83.05;16.10;;;6.90;99.90;;;;;;20877724;28;20112;-78
2022/11/07 08:38:37;;;;;;;166.57;19.83;;;7.10;99.90;;;;;;20877026;28;20035;-78
2022/11/07 08:48:39;;;;;;;38.60;17.17;;;7.20;99.90;;;;;;20878182;28;20388;-79
2022/11/07 08:58:39;;;;;;;41.30;17.13;;;7.50;99.90;;;;;;20879400;28;20097;-77
2022/11/07 09:08:40;;;;;;;30.67;15.20;;;8.00;99.90;;;;;;20883206;28;20064;-78
2022/11/07 09:18:42;;;;;;;26.50;14.10;;;8.30;99.90;;;;;;20943007;28;20043;-79
2022/11/07 09:28:42;;;;;;;;;;;10.70;99.90;;;;;;20937627;28;20053;-78
2022/11/07 09:38:43;;;;;;;13.77;8.83;;;12.60;99.90;;;;;;20970032;28;19965;-79
2022/11/07 09:48:53;;;;;;;17.10;9.47;;;13.60;99.90;;;;;;20916818;28;20216;-79
2022/11/07 09:58:57;;;;;;;16.05;9.70;;;14.10;99.90;;;;;;20915539;28;20029;-79
2022/11/07 10:09:15;;;;;;;14.30;8.80;;;14.00;99.90;;;;;;20945992;28;20047;-79
2022/11/07 10:19:38;;;;;;;14.90;8.07;;;14.30;99.90;;;;;;20964448;28;20037;-79
2022/11/07 10:29:53;;;;;;;;;;;15.60;99.90;;;;;;20917718;28;20040;-79
2022/11/07 10:39:54;;;;;;;13.57;7.60;;;14.70;99.90;;;;;;20855593;28;19913;-79
2022/11/07 10:50:21;;;;;;;12.30;6.90;;;15.70;99.90;;;;;;20840447;28;20040;-77
2022/11/07 11:00:31;;;;;;;10.23;5.65;;;15.90;99.90;;;;;;20835936;28;20032;-76
2022/11/07 11:10:37;;;;;;;9.02;5.35;;;17.50;99.90;;;;;;20831556;28;20033;-76
2022/11/07 11:20:43;;;;;;;6.55;4.10;;;19.30;99.90;;;;;;20844205;28;20025;-76
2022/11/07 11:30:47;;;;;;;10.25;4.43;;;19.20;99.90;;;;;;20894704;28;20041;-77
2022/11/07 11:40:54;;;;;;;6.68;3.90;;;19.80;99.90;;;;;;20914941;28;20064;-77
2022/11/07 11:51:48;;;;;;;6.00;3.20;;;18.90;99.90;;;;;;20913975;28;20057;-77
2022/11/07 12:02:07;;;;;;;6.45;3.60;;;19.70;99.90;;;;;;20885536;28;20051;-77
2022/11/07 12:12:50;;;;;;;3.40;2.28;;;20.90;99.90;;;;;;20919557;28;20547;-77
2022/11/07 12:23:03;;;;;;;7.20;2.35;;;20.20;99.90;;;;;;20864922;28;20109;-75
2022/11/07 12:33:20;;;;;;;3.72;2.35;;;19.60;99.90;;;;;;20903021;28;20547;-77
2022/11/07 12:43:38;;;;;;;2.60;2.05;;;18.50;99.90;;;;;;20924635;28;20045;-76
2022/11/07 12:54:01;;;;;;;4.93;1.63;;;18.80;99.90;;;;;;20940091;28;20487;-76
2022/11/07 13:04:15;;;;;;;4.18;1.42;;;18.50;99.90;;;;;;20970348;22;20078;-78
2022/11/07 13:14:26;;;;;;;5.13;1.02;;;18.80;99.90;;;;;;20993211;28;20057;-78
2022/11/07 13:24:27;;;;;;;3.20;1.58;;;18.80;99.90;;;;;;21021895;28;20032;-80
2022/11/07 13:34:27;;;;;;;2.83;1.10;;;18.50;99.90;;;;;;21023463;28;20032;-79
2022/11/07 13:44:34;;;;;;;2.20;0.73;;;18.30;99.90;;;;;;21016250;28;20054;-78
2022/11/07 13:55:02;;;;;;;2.25;1.10;;;17.20;99.90;;;;;;21014681;28;20032;-79
2022/11/07 14:05:09;;;;;;;4.40;1.30;;;17.10;99.90;;;;;;21001085;28;20021;-79
2022/11/07 14:15:16;;;;;;;1.92;0.82;;;16.50;99.90;;;;;;21001216;28;20033;-79
2022/11/07 14:25:39;;;;;;;2.00;1.00;;;16.20;99.90;;;;;;21007387;28;20024;-79
2022/11/07 14:35:44;;;;;;;2.38;1.20;;;15.90;99.90;;;;;;21076627;28;20032;-78
2022/11/07 14:45:46;;;;;;;2.03;1.10;;;15.90;99.90;;;;;;21092145;28;20028;-78
2022/11/07 14:55:52;;;;;;;3.95;1.48;;;15.10;99.90;;;;;;21085652;28;20442;-78
2022/11/07 15:05:53;;;;;;;5.50;1.45;;;15.50;99.90;;;;;;21072817;28;20036;-78
2022/11/07 15:16:15;;;;;;;4.17;1.40;;;15.40;99.90;;;;;;21073588;28;20527;-79
2022/11/07 15:26:28;;;;;;;2.93;0.90;;;14.80;99.90;;;;;;20986878;28;20135;-78
2022/11/07 15:36:29;;;;;;;1.33;0.88;;;14.50;99.90;;;;;;20928967;28;20399;-77
2022/11/07 15:46:39;;;;;;;4.30;1.70;;;13.30;99.90;;;;;;20987226;28;20086;-78
2022/11/07 15:56:40;;;;;;;7.13;2.45;;;12.60;99.90;;;;;;21003916;28;20032;-78
2022/11/07 16:06:42;;;;;;;4.75;1.95;;;12.50;99.90;;;;;;20978426;28;20041;-78
2022/11/07 16:16:45;;;;;;;4.32;2.72;;;11.80;99.90;;;;;;20925890;28;20040;-78
2022/11/07 16:26:48;;;;;;;5.95;2.53;;;11.70;99.90;;;;;;20978495;28;20085;-78
2022/11/07 16:36:49;;;;;;;6.50;2.97;;;11.70;99.90;;;;;;21030429;28;20037;-78
2022/11/07 16:46:50;;;;;;;4.07;2.30;;;10.70;99.90;;;;;;20991831;28;20071;-78
2022/11/07 16:56:51;;;;;;;3.00;2.13;;;10.50;99.90;;;;;;20933270;28;20093;-77
2022/11/07 17:06:55;;;;;;;8.93;6.65;;;10.30;99.90;;;;;;20969335;28;20076;-77
2022/11/07 17:16:55;;;;;;;8.13;7.13;;;9.90;99.90;;;;;;20909745;28;20483;-78
2022/11/07 17:26:58;;;;;;;5.90;3.40;;;9.70;99.90;;;;;;20953627;28;20708;-78
2022/11/07 17:36:59;;;;;;;5.57;3.30;;;9.70;99.90;;;;;;21025311;28;20051;-77
2022/11/07 17:47:01;;;;;;;5.35;2.63;;;9.50;99.90;;;;;;20954749;28;20033;-78
2022/11/07 17:57:07;;;;;;;101.28;33.90;;;8.90;99.90;;;;;;20901274;28;20539;-78
2022/11/07 18:07:08;;;;;;;88.55;45.28;;;8.50;99.90;;;;;;20957812;28;20537;-78
2022/11/07 18:17:09;;;;;;;25.42;9.07;;;8.50;99.90;;;;;;21006471;28;20506;-77
2022/11/07 18:27:10;;;;;;;14.40;7.10;;;8.20;99.90;;;;;;20987520;28;20093;-77
2022/11/07 18:37:10;;;;;;;9.93;4.23;;;7.80;99.90;;;;;;20988539;28;20028;-78
2022/11/07 18:47:11;;;;;;;7.47;2.60;;;8.50;99.90;;;;;;21005927;28;20025;-78
2022/11/07 18:57:12;;;;;;;10.57;2.30;;;8.10;99.90;;;;;;21005149;28;20031;-78
2022/11/07 19:07:13;;;;;;;4.93;2.63;;;8.10;99.90;;;;;;21045573;22;20044;-78
2022/11/07 19:17:14;;;;;;;5.63;2.10;;;8.20;99.90;;;;;;21088110;28;20032;-77
2022/11/07 19:27:15;;;;;;;6.03;2.03;;;7.50;99.90;;;;;;21082782;28;20039;-78
2022/11/07 19:37:15;;;;;;;5.53;1.90;;;7.80;99.90;;;;;;21061884;28;20496;-77
2022/11/07 19:47:17;;;;;;;7.53;2.07;;;8.10;99.90;;;;;;21076538;28;20570;-77
2022/11/07 19:57:17;;;;;;;;;;;8.10;99.90;;;;;;21076191;28;20036;-77
2022/11/07 20:07:18;;;;;;;21.23;7.53;;;8.10;99.90;;;;;;21075395;28;20483;-77
2022/11/07 20:17:19;;;;;;;7.20;3.13;;;7.90;99.90;;;;;;21075200;28;20772;-77
2022/11/07 20:27:20;;;;;;;3.23;2.00;;;7.30;99.90;;;;;;21064815;28;20280;-77
2022/11/07 20:37:21;;;;;;;5.13;1.67;;;6.80;99.90;;;;;;21076106;28;20028;-77
2022/11/07 20:47:22;;;;;;;4.68;2.42;;;6.80;99.90;;;;;;21050921;28;20542;-77
2022/11/07 20:57:24;;;;;;;2.92;1.73;;;7.00;99.90;;;;;;21048853;28;20032;-77
2022/11/07 21:07:25;;;;;;;5.75;2.60;;;6.90;99.90;;;;;;21052114;28;20025;-76
2022/11/07 21:17:26;;;;;;;3.37;1.87;;;6.80;99.90;;;;;;21004040;28;20120;-77
2022/11/07 21:27:27;;;;;;;4.37;1.93;;;6.60;99.90;;;;;;20986433;28;20040;-77
2022/11/07 21:37:27;;;;;;;3.23;1.80;;;7.20;99.90;;;;;;20999892;28;20288;-76
2022/11/07 21:47:29;;;;;;;4.57;2.00;;;7.40;99.90;;;;;;20943169;28;20039;-76
2022/11/07 21:57:30;;;;;;;5.90;1.70;;;7.40;99.90;;;;;;20969527;28;20293;-76
2022/11/07 22:07:35;;;;;;;5.07;1.97;;;7.40;99.90;;;;;;20945700;28;20060;-76
2022/11/07 22:17:36;;;;;;;5.93;2.70;;;7.40;99.90;;;;;;20944795;28;20396;-78
2022/11/07 22:27:37;;;;;;;3.73;1.77;;;7.30;99.90;;;;;;20958636;28;20027;-77
2022/11/07 22:37:37;;;;;;;2.40;1.43;;;7.20;99.90;;;;;;20932670;28;20036;-77
2022/11/07 22:47:38;;;;;;;3.60;1.70;;;7.10;99.90;;;;;;21056183;28;20317;-79
2022/11/07 22:57:41;;;;;;;4.10;1.83;;;7.00;99.90;;;;;;21082792;28;20088;-76
2022/11/07 23:07:42;;;;;;;6.00;1.98;;;6.80;99.90;;;;;;21062183;28;20043;-77
2022/11/07 23:17:43;;;;;;;4.45;2.10;;;6.80;99.90;;;;;;21060738;28;20394;-76
2022/11/07 23:27:44;;;;;;;4.25;1.92;;;6.90;99.90;;;;;;21059856;28;20671;-77
2022/11/07 23:37:45;;;;;;;4.97;2.00;;;7.00;99.90;;;;;;21037563;28;20035;-77
